sensor_id;sensor_type;location;lat;lon;timestamp;temperature;humidity
18998;DHT22;9632;51.018;4.284;2023-07-16T00:00:14;20.20;99.90
18998;DHT22;9632;51.018;4.284;2023-07-16T00:02:41;20.20;99.90
18998;DHT22;9632;51.018;4.284;2023-07-16T00:05:06;20.20;99.90
18998;DHT22;9632;51.018;4.284;2023-07-16T00:07:32;20.20;99.90
18998;DHT22;9632;51.018;4.284;2023-07-16T00:09:58;20.20;99.90
18998;DHT22;9632;51.018;4.284;2023-07-16T00:12:23;20.20;99.90
18998;DHT22;9632;51.018;4.284;2023-07-16T00:14:49;20.20;99.90
18998;DHT22;9632;51.018;4.284;2023-07-16T00:17:18;20.20;99.90
18998;DHT22;9632;51.018;4.284;2023-07-16T00:19:43;20.20;99.90
18998;DHT22;9632;51.018;4.284;2023-07-16T00:22:09;20.20;99.90
18998;DHT22;9632;51.018;4.284;2023-07-16T00:24:35;20.20;99.90
18998;DHT22;9632;51.018;4.284;2023-07-16T00:27:00;20.10;99.90
18998;DHT22;9632;51.018;4.284;2023-07-16T00:29:26;20.20;99.90
18998;DHT22;9632;51.018;4.284;2023-07-16T00:31:52;20.20;99.90
18998;DHT22;9632;51.018;4.284;2023-07-16T00:34:17;20.20;99.90
18998;DHT22;9632;51.018;4.284;2023-07-16T00:36:43;20.10;99.90
18998;DHT22;9632;51.018;4.284;2023-07-16T00:39:09;20.10;99.90
18998;DHT22;9632;51.018;4.284;2023-07-16T00:41:35;20.10;99.90
18998;DHT22;9632;51.018;4.284;2023-07-16T00:44:01;20.00;99.90
18998;DHT22;9632;51.018;4.284;2023-07-16T00:46:26;20.00;99.90
18998;DHT22;9632;51.018;4.284;2023-07-16T00:48:52;20.00;99.90
18998;DHT22;9632;51.018;4.284;2023-07-16T00:51:19;20.00;99.90
18998;DHT22;9632;51.018;4.284;2023-07-16T00:53:47;20.00;99.90
18998;DHT22;9632;51.018;4.284;2023-07-16T00:56:16;20.00;99.90
18998;DHT22;9632;51.018;4.284;2023-07-16T00:58:42;19.90;99.90
18998;DHT22;9632;51.018;4.284;2023-07-16T01:01:08;19.90;99.90
18998;DHT22;9632;51.018;4.284;2023-07-16T01:03:34;19.90;99.90
18998;DHT22;9632;51.018;4.284;2023-07-16T01:06:08;19.90;99.90
18998;DHT22;9632;51.018;4.284;2023-07-16T01:08:41;19.80;99.90
18998;DHT22;9632;51.018;4.284;2023-07-16T01:11:07;19.70;99.90
18998;DHT22;9632;51.018;4.284;2023-07-16T01:13:34;19.70;99.90
18998;DHT22;9632;51.018;4.284;2023-07-16T01:16:00;19.60;99.90
18998;DHT22;9632;51.018;4.284;2023-07-16T01:18:26;19.60;99.90
18998;DHT22;9632;51.018;4.284;2023-07-16T01:20:52;19.50;99.90
18998;DHT22;9632;51.018;4.284;2023-07-16T01:31:25;19.40;99.90
18998;DHT22;9632;51.018;4.284;2023-07-16T01:33:52;19.40;99.90
18998;DHT22;9632;51.018;4.284;2023-07-16T01:36:19;19.40;99.90
18998;DHT22;9632;51.018;4.284;2023-07-16T01:38:46;19.30;99.90
18998;DHT22;9632;51.018;4.284;2023-07-16T01:41:12;19.30;99.90
18998;DHT22;9632;51.018;4.284;2023-07-16T01:43:38;19.30;99.90
18998;DHT22;9632;51.018;4.284;2023-07-16T01:46:03;19.20;99.90
18998;DHT22;9632;51.018;4.284;2023-07-16T01:48:32;19.10;99.90
18998;DHT22;9632;51.018;4.284;2023-07-16T01:50:58;19.10;99.90
18998;DHT22;9632;51.018;4.284;2023-07-16T01:53:24;19.00;99.90
18998;DHT22;9632;51.018;4.284;2023-07-16T01:55:49;19.00;99.90
18998;DHT22;9632;51.018;4.284;2023-07-16T01:58:15;19.00;99.90
18998;DHT22;9632;51.018;4.284;2023-07-16T02:00:42;19.00;99.90
18998;DHT22;9632;51.018;4.284;2023-07-16T02:03:07;18.90;99.90
18998;DHT22;9632;51.018;4.284;2023-07-16T02:05:33;18.90;99.90
18998;DHT22;9632;51.018;4.284;2023-07-16T02:07:59;18.90;99.90
18998;DHT22;9632;51.018;4.284;2023-07-16T02:10:24;18.90;99.90
18998;DHT22;9632;51.018;4.284;2023-07-16T02:12:50;18.80;99.90
18998;DHT22;9632;51.018;4.284;2023-07-16T02:15:16;18.80;99.90
18998;DHT22;9632;51.018;4.284;2023-07-16T02:17:43;18.80;99.90
18998;DHT22;9632;51.018;4.284;2023-07-16T02:20:09;18.70;99.90
18998;DHT22;9632;51.018;4.284;2023-07-16T02:22:36;18.80;99.90
18998;DHT22;9632;51.018;4.284;2023-07-16T02:25:02;18.80;99.90
18998;DHT22;9632;51.018;4.284;2023-07-16T02:27:28;18.80;99.90
18998;DHT22;9632;51.018;4.284;2023-07-16T02:29:53;18.80;99.90
18998;DHT22;9632;51.018;4.284;2023-07-16T02:32:19;18.80;99.90
18998;DHT22;9632;51.018;4.284;2023-07-16T02:34:45;18.80;99.90
18998;DHT22;9632;51.018;4.284;2023-07-16T02:37:10;18.80;99.90
18998;DHT22;9632;51.018;4.284;2023-07-16T02:39:36;18.90;99.90
18998;DHT22;9632;51.018;4.284;2023-07-16T02:42:02;18.80;99.90
18998;DHT22;9632;51.018;4.284;2023-07-16T02:44:27;18.80;99.90
18998;DHT22;9632;51.018;4.284;2023-07-16T02:46:53;18.80;99.90
18998;DHT22;9632;51.018;4.284;2023-07-16T02:49:18;18.80;99.90
18998;DHT22;9632;51.018;4.284;2023-07-16T02:51:44;18.80;99.90
18998;DHT22;9632;51.018;4.284;2023-07-16T02:54:10;18.80;99.90
18998;DHT22;9632;51.018;4.284;2023-07-16T02:56:35;18.70;99.90
18998;DHT22;9632;51.018;4.284;2023-07-16T02:59:01;18.70;99.90
18998;DHT22;9632;51.018;4.284;2023-07-16T03:01:26;18.60;99.90
18998;DHT22;9632;51.018;4.284;2023-07-16T03:03:52;18.60;99.90
18998;DHT22;9632;51.018;4.284;2023-07-16T03:06:18;18.60;99.90
18998;DHT22;9632;51.018;4.284;2023-07-16T03:08:43;18.50;99.90
18998;DHT22;9632;51.018;4.284;2023-07-16T03:11:11;18.50;99.90
18998;DHT22;9632;51.018;4.284;2023-07-16T03:13:36;18.50;99.90
18998;DHT22;9632;51.018;4.284;2023-07-16T03:16:02;18.50;99.90
18998;DHT22;9632;51.018;4.284;2023-07-16T03:18:31;18.50;99.90
18998;DHT22;9632;51.018;4.284;2023-07-16T03:20:57;18.40;99.90
18998;DHT22;9632;51.018;4.284;2023-07-16T03:23:23;18.40;99.90
18998;DHT22;9632;51.018;4.284;2023-07-16T03:25:50;18.40;99.90
18998;DHT22;9632;51.018;4.284;2023-07-16T03:28:15;18.40;99.90
18998;DHT22;9632;51.018;4.284;2023-07-16T03:30:48;18.50;99.90
18998;DHT22;9632;51.018;4.284;2023-07-16T03:33:14;18.50;99.90
18998;DHT22;9632;51.018;4.284;2023-07-16T03:35:45;18.40;99.90
18998;DHT22;9632;51.018;4.284;2023-07-16T03:38:12;18.40;99.90
18998;DHT22;9632;51.018;4.284;2023-07-16T03:40:38;18.40;99.90
18998;DHT22;9632;51.018;4.284;2023-07-16T03:43:04;18.40;99.90
18998;DHT22;9632;51.018;4.284;2023-07-16T03:45:30;18.40;99.90
18998;DHT22;9632;51.018;4.284;2023-07-16T03:47:55;18.40;99.90
18998;DHT22;9632;51.018;4.284;2023-07-16T03:50:21;18.40;99.90
18998;DHT22;9632;51.018;4.284;2023-07-16T03:52:47;18.40;99.90
18998;DHT22;9632;51.018;4.284;2023-07-16T03:55:12;18.40;99.90
18998;DHT22;9632;51.018;4.284;2023-07-16T03:57:38;18.40;99.90
18998;DHT22;9632;51.018;4.284;2023-07-16T04:00:05;18.30;99.90
18998;DHT22;9632;51.018;4.284;2023-07-16T04:02:35;18.30;99.90
18998;DHT22;9632;51.018;4.284;2023-07-16T04:05:01;18.20;99.90
18998;DHT22;9632;51.018;4.284;2023-07-16T04:07:26;18.30;99.90
18998;DHT22;9632;51.018;4.284;2023-07-16T04:09:52;18.20;99.90
18998;DHT22;9632;51.018;4.284;2023-07-16T04:12:18;18.20;99.90
18998;DHT22;9632;51.018;4.284;2023-07-16T04:14:43;18.10;99.90
18998;DHT22;9632;51.018;4.284;2023-07-16T04:17:09;18.20;99.90
18998;DHT22;9632;51.018;4.284;2023-07-16T04:19:35;18.30;99.90
18998;DHT22;9632;51.018;4.284;2023-07-16T04:22:00;18.30;99.90
18998;DHT22;9632;51.018;4.284;2023-07-16T04:24:26;18.40;99.90
18998;DHT22;9632;51.018;4.284;2023-07-16T04:26:53;18.40;99.90
18998;DHT22;9632;51.018;4.284;2023-07-16T04:29:18;18.40;99.90
18998;DHT22;9632;51.018;4.284;2023-07-16T04:31:44;18.50;99.90
18998;DHT22;9632;51.018;4.284;2023-07-16T04:34:10;18.60;99.90
18998;DHT22;9632;51.018;4.284;2023-07-16T04:36:35;18.70;99.90
18998;DHT22;9632;51.018;4.284;2023-07-16T04:39:01;18.90;99.90
18998;DHT22;9632;51.018;4.284;2023-07-16T04:41:27;18.90;99.90
18998;DHT22;9632;51.018;4.284;2023-07-16T04:43:53;18.90;99.90
18998;DHT22;9632;51.018;4.284;2023-07-16T04:46:18;18.90;99.90
18998;DHT22;9632;51.018;4.284;2023-07-16T04:48:44;19.00;99.90
18998;DHT22;9632;51.018;4.284;2023-07-16T04:51:10;19.20;99.90
18998;DHT22;9632;51.018;4.284;2023-07-16T04:53:35;19.30;99.90
18998;DHT22;9632;51.018;4.284;2023-07-16T04:56:01;19.50;99.90
18998;DHT22;9632;51.018;4.284;2023-07-16T04:58:26;19.50;99.90
18998;DHT22;9632;51.018;4.284;2023-07-16T05:00:52;19.70;99.90
18998;DHT22;9632;51.018;4.284;2023-07-16T05:03:18;19.70;99.90
18998;DHT22;9632;51.018;4.284;2023-07-16T05:05:43;19.60;99.90
18998;DHT22;9632;51.018;4.284;2023-07-16T05:08:09;19.70;99.90
18998;DHT22;9632;51.018;4.284;2023-07-16T05:10:35;19.70;99.90
18998;DHT22;9632;51.018;4.284;2023-07-16T05:13:00;19.80;99.90
18998;DHT22;9632;51.018;4.284;2023-07-16T05:15:26;19.90;99.90
18998;DHT22;9632;51.018;4.284;2023-07-16T05:17:52;20.00;99.90
18998;DHT22;9632;51.018;4.284;2023-07-16T05:20:17;20.20;99.90
18998;DHT22;9632;51.018;4.284;2023-07-16T05:22:43;20.20;99.90
18998;DHT22;9632;51.018;4.284;2023-07-16T05:25:09;20.30;99.90
18998;DHT22;9632;51.018;4.284;2023-07-16T05:27:34;20.30;99.90
18998;DHT22;9632;51.018;4.284;2023-07-16T05:30:01;20.50;99.90
18998;DHT22;9632;51.018;4.284;2023-07-16T05:32:27;20.60;99.90
18998;DHT22;9632;51.018;4.284;2023-07-16T05:34:52;20.80;99.90
18998;DHT22;9632;51.018;4.284;2023-07-16T05:37:18;20.90;99.90
18998;DHT22;9632;51.018;4.284;2023-07-16T05:39:43;20.90;99.90
18998;DHT22;9632;51.018;4.284;2023-07-16T05:42:09;21.00;99.90
18998;DHT22;9632;51.018;4.284;2023-07-16T05:44:35;21.10;99.90
18998;DHT22;9632;51.018;4.284;2023-07-16T05:47:01;21.20;99.90
18998;DHT22;9632;51.018;4.284;2023-07-16T05:49:26;21.40;99.90
18998;DHT22;9632;51.018;4.284;2023-07-16T05:51:52;21.50;99.90
18998;DHT22;9632;51.018;4.284;2023-07-16T05:54:19;21.60;99.90
18998;DHT22;9632;51.018;4.284;2023-07-16T05:56:45;21.60;99.90
18998;DHT22;9632;51.018;4.284;2023-07-16T05:59:11;21.60;99.90
18998;DHT22;9632;51.018;4.284;2023-07-16T06:01:36;21.50;99.90
18998;DHT22;9632;51.018;4.284;2023-07-16T06:04:02;21.60;99.90
18998;DHT22;9632;51.018;4.284;2023-07-16T06:06:28;21.60;99.90
18998;DHT22;9632;51.018;4.284;2023-07-16T06:08:54;21.60;99.90
18998;DHT22;9632;51.018;4.284;2023-07-16T06:11:20;21.70;99.90
18998;DHT22;9632;51.018;4.284;2023-07-16T06:13:46;21.60;99.90
18998;DHT22;9632;51.018;4.284;2023-07-16T06:16:11;21.70;99.90
18998;DHT22;9632;51.018;4.284;2023-07-16T06:18:37;21.90;99.90
18998;DHT22;9632;51.018;4.284;2023-07-16T06:21:03;22.10;99.90
18998;DHT22;9632;51.018;4.284;2023-07-16T06:23:28;22.30;99.90
18998;DHT22;9632;51.018;4.284;2023-07-16T06:25:55;22.20;99.90
18998;DHT22;9632;51.018;4.284;2023-07-16T06:28:21;22.20;99.90
18998;DHT22;9632;51.018;4.284;2023-07-16T06:30:47;22.10;99.90
18998;DHT22;9632;51.018;4.284;2023-07-16T06:33:13;22.00;99.90
18998;DHT22;9632;51.018;4.284;2023-07-16T06:35:38;22.10;99.90
18998;DHT22;9632;51.018;4.284;2023-07-16T06:38:04;22.10;99.90
18998;DHT22;9632;51.018;4.284;2023-07-16T06:40:30;22.10;99.90
18998;DHT22;9632;51.018;4.284;2023-07-16T06:42:56;22.20;99.90
18998;DHT22;9632;51.018;4.284;2023-07-16T06:45:22;22.30;99.90
18998;DHT22;9632;51.018;4.284;2023-07-16T06:47:48;22.30;99.90
18998;DHT22;9632;51.018;4.284;2023-07-16T06:50:14;22.40;99.90
18998;DHT22;9632;51.018;4.284;2023-07-16T06:52:39;22.30;99.90
18998;DHT22;9632;51.018;4.284;2023-07-16T06:55:05;22.30;99.90
18998;DHT22;9632;51.018;4.284;2023-07-16T06:57:31;22.40;99.90
18998;DHT22;9632;51.018;4.284;2023-07-16T06:59:57;22.40;99.90
18998;DHT22;9632;51.018;4.284;2023-07-16T07:02:22;22.30;99.90
18998;DHT22;9632;51.018;4.284;2023-07-16T07:04:48;22.50;99.90
18998;DHT22;9632;51.018;4.284;2023-07-16T07:07:13;22.50;99.90
18998;DHT22;9632;51.018;4.284;2023-07-16T07:09:39;22.60;99.90
18998;DHT22;9632;51.018;4.284;2023-07-16T07:12:05;22.80;99.90
18998;DHT22;9632;51.018;4.284;2023-07-16T07:14:33;22.90;99.90
18998;DHT22;9632;51.018;4.284;2023-07-16T07:16:59;22.90;99.90
18998;DHT22;9632;51.018;4.284;2023-07-16T07:19:24;23.00;99.90
18998;DHT22;9632;51.018;4.284;2023-07-16T07:21:50;23.10;99.90
18998;DHT22;9632;51.018;4.284;2023-07-16T07:24:16;23.10;99.90
18998;DHT22;9632;51.018;4.284;2023-07-16T07:26:42;23.10;99.90
18998;DHT22;9632;51.018;4.284;2023-07-16T07:29:07;23.10;99.90
18998;DHT22;9632;51.018;4.284;2023-07-16T07:31:33;23.10;99.90
18998;DHT22;9632;51.018;4.284;2023-07-16T07:33:59;23.00;99.90
18998;DHT22;9632;51.018;4.284;2023-07-16T07:36:25;23.20;99.90
18998;DHT22;9632;51.018;4.284;2023-07-16T07:38:50;23.30;99.90
18998;DHT22;9632;51.018;4.284;2023-07-16T07:41:16;23.20;99.90
18998;DHT22;9632;51.018;4.284;2023-07-16T07:43:42;23.30;99.90
18998;DHT22;9632;51.018;4.284;2023-07-16T07:46:08;23.40;99.90
18998;DHT22;9632;51.018;4.284;2023-07-16T07:48:34;23.30;99.90
18998;DHT22;9632;51.018;4.284;2023-07-16T07:50:59;23.20;99.90
18998;DHT22;9632;51.018;4.284;2023-07-16T07:53:25;23.20;99.90
18998;DHT22;9632;51.018;4.284;2023-07-16T07:55:50;23.10;99.90
18998;DHT22;9632;51.018;4.284;2023-07-16T07:58:16;23.10;99.90
18998;DHT22;9632;51.018;4.284;2023-07-16T08:00:42;23.10;99.90
18998;DHT22;9632;51.018;4.284;2023-07-16T08:03:07;23.20;99.90
18998;DHT22;9632;51.018;4.284;2023-07-16T08:05:33;23.10;99.90
18998;DHT22;9632;51.018;4.284;2023-07-16T08:07:59;23.20;99.90
18998;DHT22;9632;51.018;4.284;2023-07-16T08:10:25;23.20;99.90
18998;DHT22;9632;51.018;4.284;2023-07-16T08:12:50;23.40;99.90
18998;DHT22;9632;51.018;4.284;2023-07-16T08:15:18;23.50;99.90
18998;DHT22;9632;51.018;4.284;2023-07-16T08:17:45;23.70;99.90
18998;DHT22;9632;51.018;4.284;2023-07-16T08:20:11;23.70;99.90
18998;DHT22;9632;51.018;4.284;2023-07-16T08:22:38;23.70;99.90
18998;DHT22;9632;51.018;4.284;2023-07-16T08:25:05;23.80;99.90
18998;DHT22;9632;51.018;4.284;2023-07-16T08:27:31;24.00;99.90
18998;DHT22;9632;51.018;4.284;2023-07-16T08:29:57;24.20;99.90
18998;DHT22;9632;51.018;4.284;2023-07-16T08:32:23;24.40;99.90
18998;DHT22;9632;51.018;4.284;2023-07-16T08:34:49;24.30;99.90
18998;DHT22;9632;51.018;4.284;2023-07-16T08:37:14;24.20;99.90
18998;DHT22;9632;51.018;4.284;2023-07-16T08:39:40;24.00;99.90
18998;DHT22;9632;51.018;4.284;2023-07-16T08:42:08;23.80;99.90
18998;DHT22;9632;51.018;4.284;2023-07-16T08:44:35;23.80;99.90
18998;DHT22;9632;51.018;4.284;2023-07-16T08:47:01;23.70;99.90
18998;DHT22;9632;51.018;4.284;2023-07-16T08:49:30;23.60;99.90
18998;DHT22;9632;51.018;4.284;2023-07-16T08:51:56;23.60;99.90
18998;DHT22;9632;51.018;4.284;2023-07-16T08:54:22;23.60;99.90
18998;DHT22;9632;51.018;4.284;2023-07-16T08:56:48;23.80;99.90
18998;DHT22;9632;51.018;4.284;2023-07-16T08:59:17;23.80;99.90
18998;DHT22;9632;51.018;4.284;2023-07-16T09:01:43;23.90;99.90
18998;DHT22;9632;51.018;4.284;2023-07-16T09:04:09;24.00;99.90
18998;DHT22;9632;51.018;4.284;2023-07-16T09:06:34;24.00;99.90
18998;DHT22;9632;51.018;4.284;2023-07-16T09:09:00;24.00;99.90
18998;DHT22;9632;51.018;4.284;2023-07-16T09:11:25;24.00;99.90
18998;DHT22;9632;51.018;4.284;2023-07-16T09:13:52;24.00;99.90
18998;DHT22;9632;51.018;4.284;2023-07-16T09:16:18;24.20;99.90
18998;DHT22;9632;51.018;4.284;2023-07-16T09:18:44;24.20;99.90
18998;DHT22;9632;51.018;4.284;2023-07-16T09:21:11;24.20;99.90
18998;DHT22;9632;51.018;4.284;2023-07-16T09:23:37;23.80;99.90
18998;DHT22;9632;51.018;4.284;2023-07-16T09:26:03;23.70;99.90
18998;DHT22;9632;51.018;4.284;2023-07-16T09:28:30;23.60;99.90
18998;DHT22;9632;51.018;4.284;2023-07-16T09:31:06;23.50;99.90
18998;DHT22;9632;51.018;4.284;2023-07-16T09:33:33;23.40;99.90
18998;DHT22;9632;51.018;4.284;2023-07-16T09:35:59;23.40;99.90
18998;DHT22;9632;51.018;4.284;2023-07-16T09:38:27;23.30;99.90
18998;DHT22;9632;51.018;4.284;2023-07-16T09:40:55;23.20;99.90
18998;DHT22;9632;51.018;4.284;2023-07-16T09:43:21;23.20;99.90
18998;DHT22;9632;51.018;4.284;2023-07-16T09:45:47;23.20;99.90
18998;DHT22;9632;51.018;4.284;2023-07-16T09:48:14;23.20;99.90
18998;DHT22;9632;51.018;4.284;2023-07-16T09:50:53;23.20;99.90
18998;DHT22;9632;51.018;4.284;2023-07-16T09:53:20;23.30;99.90
18998;DHT22;9632;51.018;4.284;2023-07-16T09:55:46;23.40;99.90
18998;DHT22;9632;51.018;4.284;2023-07-16T09:58:13;23.40;99.90
18998;DHT22;9632;51.018;4.284;2023-07-16T10:00:40;23.30;99.90
18998;DHT22;9632;51.018;4.284;2023-07-16T10:03:07;23.20;99.90
18998;DHT22;9632;51.018;4.284;2023-07-16T10:05:36;23.20;99.90
18998;DHT22;9632;51.018;4.284;2023-07-16T10:08:02;23.20;99.90
18998;DHT22;9632;51.018;4.284;2023-07-16T10:10:47;23.20;99.90
18998;DHT22;9632;51.018;4.284;2023-07-16T10:13:17;23.30;99.90
18998;DHT22;9632;51.018;4.284;2023-07-16T10:15:59;23.20;99.90
18998;DHT22;9632;51.018;4.284;2023-07-16T10:20:51;23.00;99.90
18998;DHT22;9632;51.018;4.284;2023-07-16T10:23:18;23.00;99.90
18998;DHT22;9632;51.018;4.284;2023-07-16T10:26:03;22.90;99.90
18998;DHT22;9632;51.018;4.284;2023-07-16T10:28:32;22.90;99.90
18998;DHT22;9632;51.018;4.284;2023-07-16T10:30:58;22.80;99.90
18998;DHT22;9632;51.018;4.284;2023-07-16T10:33:24;22.90;99.90
18998;DHT22;9632;51.018;4.284;2023-07-16T10:35:49;22.90;99.90
18998;DHT22;9632;51.018;4.284;2023-07-16T10:38:15;22.80;99.90
18998;DHT22;9632;51.018;4.284;2023-07-16T10:40:42;22.90;99.90
18998;DHT22;9632;51.018;4.284;2023-07-16T10:43:08;22.70;99.90
18998;DHT22;9632;51.018;4.284;2023-07-16T10:45:34;22.70;99.90
18998;DHT22;9632;51.018;4.284;2023-07-16T10:48:00;22.50;99.90
18998;DHT22;9632;51.018;4.284;2023-07-16T10:50:25;22.50;99.90
18998;DHT22;9632;51.018;4.284;2023-07-16T10:52:52;22.60;99.90
18998;DHT22;9632;51.018;4.284;2023-07-16T10:55:19;22.60;99.90
18998;DHT22;9632;51.018;4.284;2023-07-16T10:57:47;22.60;99.90
18998;DHT22;9632;51.018;4.284;2023-07-16T11:00:15;22.60;99.90
18998;DHT22;9632;51.018;4.284;2023-07-16T11:02:41;22.70;99.90
18998;DHT22;9632;51.018;4.284;2023-07-16T11:05:12;22.80;99.90
18998;DHT22;9632;51.018;4.284;2023-07-16T11:07:48;22.70;99.90
18998;DHT22;9632;51.018;4.284;2023-07-16T11:10:17;22.90;99.90
18998;DHT22;9632;51.018;4.284;2023-07-16T11:12:44;23.00;99.90
18998;DHT22;9632;51.018;4.284;2023-07-16T11:15:10;23.10;99.90
18998;DHT22;9632;51.018;4.284;2023-07-16T11:17:39;23.10;99.90
18998;DHT22;9632;51.018;4.284;2023-07-16T11:20:07;23.20;99.90
18998;DHT22;9632;51.018;4.284;2023-07-16T11:22:37;23.30;99.90
18998;DHT22;9632;51.018;4.284;2023-07-16T11:25:03;23.50;99.90
18998;DHT22;9632;51.018;4.284;2023-07-16T11:27:32;23.70;99.90
18998;DHT22;9632;51.018;4.284;2023-07-16T11:29:59;23.80;99.90
18998;DHT22;9632;51.018;4.284;2023-07-16T11:32:34;24.00;99.90
18998;DHT22;9632;51.018;4.284;2023-07-16T11:35:05;24.00;99.90
18998;DHT22;9632;51.018;4.284;2023-07-16T11:37:33;24.00;99.90
18998;DHT22;9632;51.018;4.284;2023-07-16T11:40:01;24.20;99.90
18998;DHT22;9632;51.018;4.284;2023-07-16T11:42:36;24.20;99.90
18998;DHT22;9632;51.018;4.284;2023-07-16T11:45:03;24.30;99.90
18998;DHT22;9632;51.018;4.284;2023-07-16T11:47:29;24.40;99.90
18998;DHT22;9632;51.018;4.284;2023-07-16T11:49:55;24.30;99.90
18998;DHT22;9632;51.018;4.284;2023-07-16T11:52:26;24.40;99.90
18998;DHT22;9632;51.018;4.284;2023-07-16T11:54:53;24.40;99.90
18998;DHT22;9632;51.018;4.284;2023-07-16T11:57:18;24.50;99.90
18998;DHT22;9632;51.018;4.284;2023-07-16T11:59:44;24.60;99.90
18998;DHT22;9632;51.018;4.284;2023-07-16T12:02:10;24.60;99.90
18998;DHT22;9632;51.018;4.284;2023-07-16T12:04:36;24.70;99.90
18998;DHT22;9632;51.018;4.284;2023-07-16T12:07:02;24.80;99.90
18998;DHT22;9632;51.018;4.284;2023-07-16T12:09:28;24.70;99.90
18998;DHT22;9632;51.018;4.284;2023-07-16T12:11:53;24.80;99.90
18998;DHT22;9632;51.018;4.284;2023-07-16T12:14:19;24.90;99.90
18998;DHT22;9632;51.018;4.284;2023-07-16T12:16:45;24.90;99.90
18998;DHT22;9632;51.018;4.284;2023-07-16T12:19:11;25.10;99.90
18998;DHT22;9632;51.018;4.284;2023-07-16T12:21:36;25.10;99.90
18998;DHT22;9632;51.018;4.284;2023-07-16T12:24:02;25.10;99.90
18998;DHT22;9632;51.018;4.284;2023-07-16T12:26:28;25.20;99.90
18998;DHT22;9632;51.018;4.284;2023-07-16T12:28:54;25.40;99.90
18998;DHT22;9632;51.018;4.284;2023-07-16T12:31:20;25.40;99.90
18998;DHT22;9632;51.018;4.284;2023-07-16T12:33:47;25.30;99.90
18998;DHT22;9632;51.018;4.284;2023-07-16T12:36:13;25.30;99.90
18998;DHT22;9632;51.018;4.284;2023-07-16T12:38:39;25.20;99.90
18998;DHT22;9632;51.018;4.284;2023-07-16T12:41:05;25.00;99.90
18998;DHT22;9632;51.018;4.284;2023-07-16T12:43:31;25.00;99.90
18998;DHT22;9632;51.018;4.284;2023-07-16T12:46:03;25.10;99.90
18998;DHT22;9632;51.018;4.284;2023-07-16T12:48:30;25.10;99.90
18998;DHT22;9632;51.018;4.284;2023-07-16T12:50:56;25.20;99.90
18998;DHT22;9632;51.018;4.284;2023-07-16T12:53:22;25.30;99.90
18998;DHT22;9632;51.018;4.284;2023-07-16T12:55:48;25.30;99.90
18998;DHT22;9632;51.018;4.284;2023-07-16T12:58:13;25.20;99.90
18998;DHT22;9632;51.018;4.284;2023-07-16T13:00:39;25.00;99.90
18998;DHT22;9632;51.018;4.284;2023-07-16T13:03:05;24.80;99.90
18998;DHT22;9632;51.018;4.284;2023-07-16T13:05:31;24.80;99.90
18998;DHT22;9632;51.018;4.284;2023-07-16T13:07:56;24.80;99.90
18998;DHT22;9632;51.018;4.284;2023-07-16T13:10:23;24.70;99.90
18998;DHT22;9632;51.018;4.284;2023-07-16T13:12:49;24.60;99.90
18998;DHT22;9632;51.018;4.284;2023-07-16T13:15:14;24.60;99.90
18998;DHT22;9632;51.018;4.284;2023-07-16T13:17:40;24.50;99.90
18998;DHT22;9632;51.018;4.284;2023-07-16T13:20:06;24.50;99.90
18998;DHT22;9632;51.018;4.284;2023-07-16T13:22:32;24.50;99.90
18998;DHT22;9632;51.018;4.284;2023-07-16T13:24:58;24.50;99.90
18998;DHT22;9632;51.018;4.284;2023-07-16T13:27:24;24.60;99.90
18998;DHT22;9632;51.018;4.284;2023-07-16T13:29:49;24.60;99.90
18998;DHT22;9632;51.018;4.284;2023-07-16T13:32:16;24.60;99.90
18998;DHT22;9632;51.018;4.284;2023-07-16T13:34:42;24.50;99.90
18998;DHT22;9632;51.018;4.284;2023-07-16T13:37:07;24.50;99.90
18998;DHT22;9632;51.018;4.284;2023-07-16T13:39:33;24.50;99.90
18998;DHT22;9632;51.018;4.284;2023-07-16T13:41:58;24.30;99.90
18998;DHT22;9632;51.018;4.284;2023-07-16T13:44:24;24.20;99.90
18998;DHT22;9632;51.018;4.284;2023-07-16T13:46:50;24.20;99.90
18998;DHT22;9632;51.018;4.284;2023-07-16T13:49:15;24.20;99.90
18998;DHT22;9632;51.018;4.284;2023-07-16T13:51:41;24.10;99.90
18998;DHT22;9632;51.018;4.284;2023-07-16T13:54:07;24.10;99.90
18998;DHT22;9632;51.018;4.284;2023-07-16T13:56:32;24.00;99.90
18998;DHT22;9632;51.018;4.284;2023-07-16T13:58:58;24.00;99.90
18998;DHT22;9632;51.018;4.284;2023-07-16T14:01:24;23.80;99.90
18998;DHT22;9632;51.018;4.284;2023-07-16T14:03:50;23.70;99.90
18998;DHT22;9632;51.018;4.284;2023-07-16T14:06:15;23.80;99.90
18998;DHT22;9632;51.018;4.284;2023-07-16T14:08:41;23.70;99.90
18998;DHT22;9632;51.018;4.284;2023-07-16T14:11:07;23.70;99.90
18998;DHT22;9632;51.018;4.284;2023-07-16T14:13:32;23.80;99.90
18998;DHT22;9632;51.018;4.284;2023-07-16T14:15:58;23.80;99.90
18998;DHT22;9632;51.018;4.284;2023-07-16T14:18:24;23.90;99.90
18998;DHT22;9632;51.018;4.284;2023-07-16T14:20:49;24.00;99.90
18998;DHT22;9632;51.018;4.284;2023-07-16T14:23:15;24.10;99.90
18998;DHT22;9632;51.018;4.284;2023-07-16T14:25:41;24.10;99.90
18998;DHT22;9632;51.018;4.284;2023-07-16T14:28:06;23.90;99.90
18998;DHT22;9632;51.018;4.284;2023-07-16T14:30:32;24.00;99.90
18998;DHT22;9632;51.018;4.284;2023-07-16T14:32:58;24.00;99.90
18998;DHT22;9632;51.018;4.284;2023-07-16T14:35:25;24.00;99.90
18998;DHT22;9632;51.018;4.284;2023-07-16T14:37:50;24.00;99.90
18998;DHT22;9632;51.018;4.284;2023-07-16T14:40:16;24.10;99.90
18998;DHT22;9632;51.018;4.284;2023-07-16T14:42:43;24.10;99.90
18998;DHT22;9632;51.018;4.284;2023-07-16T14:45:09;24.00;99.90
18998;DHT22;9632;51.018;4.284;2023-07-16T14:47:35;24.10;99.90
18998;DHT22;9632;51.018;4.284;2023-07-16T14:50:00;24.10;99.90
18998;DHT22;9632;51.018;4.284;2023-07-16T14:52:26;24.30;99.90
18998;DHT22;9632;51.018;4.284;2023-07-16T14:54:52;24.30;99.90
18998;DHT22;9632;51.018;4.284;2023-07-16T14:57:17;24.40;99.90
18998;DHT22;9632;51.018;4.284;2023-07-16T14:59:43;24.40;99.90
18998;DHT22;9632;51.018;4.284;2023-07-16T15:02:09;24.30;99.90
18998;DHT22;9632;51.018;4.284;2023-07-16T15:04:35;24.40;99.90
18998;DHT22;9632;51.018;4.284;2023-07-16T15:07:00;24.40;99.90
18998;DHT22;9632;51.018;4.284;2023-07-16T15:09:26;24.50;99.90
18998;DHT22;9632;51.018;4.284;2023-07-16T15:11:52;24.50;99.90
18998;DHT22;9632;51.018;4.284;2023-07-16T15:14:18;24.60;99.90
18998;DHT22;9632;51.018;4.284;2023-07-16T15:16:44;24.70;99.90
18998;DHT22;9632;51.018;4.284;2023-07-16T15:19:09;24.70;99.90
18998;DHT22;9632;51.018;4.284;2023-07-16T15:21:37;24.70;99.90
18998;DHT22;9632;51.018;4.284;2023-07-16T15:24:04;24.80;99.90
18998;DHT22;9632;51.018;4.284;2023-07-16T15:26:30;25.00;99.90
18998;DHT22;9632;51.018;4.284;2023-07-16T15:28:57;25.10;99.90
18998;DHT22;9632;51.018;4.284;2023-07-16T15:31:22;25.20;99.90
18998;DHT22;9632;51.018;4.284;2023-07-16T15:33:54;25.20;99.90
18998;DHT22;9632;51.018;4.284;2023-07-16T15:36:20;25.10;99.90
18998;DHT22;9632;51.018;4.284;2023-07-16T15:38:46;25.20;99.90
18998;DHT22;9632;51.018;4.284;2023-07-16T15:41:13;25.10;99.90
18998;DHT22;9632;51.018;4.284;2023-07-16T15:43:40;25.00;99.90
18998;DHT22;9632;51.018;4.284;2023-07-16T15:46:05;24.90;99.90
18998;DHT22;9632;51.018;4.284;2023-07-16T15:48:31;24.80;99.90